sensor_id;sensor_type;location;lat;lon;timestamp;pressure;altitude;pressure_sealevel;temperature;humidity
57452;BME280;66031;51.224;-0.164;2023-02-14T00:02:10;102440.44;;;17.55;28.08
57452;BME280;66031;51.224;-0.164;2023-02-14T00:04:36;102442.22;;;17.59;28.17
57452;BME280;66031;51.224;-0.164;2023-02-14T00:07:01;102442.30;;;17.36;28.18
57452;BME280;66031;51.224;-0.164;2023-02-14T00:09:27;102443.94;;;17.41;28.32
57452;BME280;66031;51.224;-0.164;2023-02-14T00:11:52;102444.06;;;17.72;28.25
57452;BME280;66031;51.224;-0.164;2023-02-14T00:14:18;102440.50;;;17.30;28.42
57452;BME280;66031;51.224;-0.164;2023-02-14T00:16:44;102443.63;;;17.50;28.41
57452;BME280;66031;51.224;-0.164;2023-02-14T00:19:11;102440.12;;;17.68;28.27
57452;BME280;66031;51.224;-0.164;2023-02-14T00:21:36;102438.46;;;17.11;28.32
57452;BME280;66031;51.224;-0.164;2023-02-14T00:24:00;102436.31;;;17.37;28.40
57452;BME280;66031;51.224;-0.164;2023-02-14T00:26:26;102435.51;;;17.55;28.38
57452;BME280;66031;51.224;-0.164;2023-02-14T00:28:52;102436.04;;;17.63;28.36
57452;BME280;66031;51.224;-0.164;2023-02-14T00:31:17;102438.56;;;17.61;28.32
57452;BME280;66031;51.224;-0.164;2023-02-14T00:33:42;102434.56;;;17.27;28.40
57452;BME280;66031;51.224;-0.164;2023-02-14T00:36:09;102430.81;;;16.94;28.65
57452;BME280;66031;51.224;-0.164;2023-02-14T00:38:35;102433.17;;;17.44;28.36
57452;BME280;66031;51.224;-0.164;2023-02-14T00:40:59;102429.18;;;17.59;28.61
57452;BME280;66031;51.224;-0.164;2023-02-14T00:43:25;102427.09;;;17.55;28.39
57452;BME280;66031;51.224;-0.164;2023-02-14T00:45:50;102429.81;;;18.40;27.87
57452;BME280;66031;51.224;-0.164;2023-02-14T00:48:16;102431.59;;;17.98;27.97
57452;BME280;66031;51.224;-0.164;2023-02-14T00:50:41;102434.02;;;17.84;28.25
57452;BME280;66031;51.224;-0.164;2023-02-14T00:53:07;102431.21;;;17.68;28.39
57452;BME280;66031;51.224;-0.164;2023-02-14T00:55:33;102434.58;;;17.94;28.40
57452;BME280;66031;51.224;-0.164;2023-02-14T00:57:58;102429.02;;;17.87;28.44
57452;BME280;66031;51.224;-0.164;2023-02-14T01:00:23;102428.15;;;17.92;28.67
57452;BME280;66031;51.224;-0.164;2023-02-14T01:02:48;102424.74;;;17.72;28.68
57452;BME280;66031;51.224;-0.164;2023-02-14T01:05:14;102426.35;;;17.70;28.70
57452;BME280;66031;51.224;-0.164;2023-02-14T01:07:40;102424.68;;;17.69;28.77
57452;BME280;66031;51.224;-0.164;2023-02-14T01:10:06;102422.24;;;17.70;28.71
57452;BME280;66031;51.224;-0.164;2023-02-14T01:12:31;102427.52;;;17.65;28.79
57452;BME280;66031;51.224;-0.164;2023-02-14T01:14:56;102430.57;;;17.50;28.52
57452;BME280;66031;51.224;-0.164;2023-02-14T01:17:22;102423.33;;;17.75;28.55
57452;BME280;66031;51.224;-0.164;2023-02-14T01:19:51;102424.32;;;17.90;28.17
57452;BME280;66031;51.224;-0.164;2023-02-14T01:22:13;102428.48;;;17.68;28.44
57452;BME280;66031;51.224;-0.164;2023-02-14T01:24:38;102430.04;;;17.67;28.56
57452;BME280;66031;51.224;-0.164;2023-02-14T01:27:04;102423.17;;;17.69;28.56
57452;BME280;66031;51.224;-0.164;2023-02-14T01:29:30;102424.78;;;17.31;28.86
57452;BME280;66031;51.224;-0.164;2023-02-14T01:31:55;102425.16;;;17.80;28.25
57452;BME280;66031;51.224;-0.164;2023-02-14T01:34:21;102422.54;;;17.94;28.27
57452;BME280;66031;51.224;-0.164;2023-02-14T01:36:46;102428.32;;;17.43;28.50
57452;BME280;66031;51.224;-0.164;2023-02-14T01:39:14;102428.14;;;17.41;28.86
57452;BME280;66031;51.224;-0.164;2023-02-14T01:41:39;102420.76;;;17.49;28.63
57452;BME280;66031;51.224;-0.164;2023-02-14T01:44:05;102421.18;;;17.28;28.66
57452;BME280;66031;51.224;-0.164;2023-02-14T01:46:31;102428.67;;;17.13;28.72
57452;BME280;66031;51.224;-0.164;2023-02-14T01:48:59;102421.01;;;17.81;28.19
57452;BME280;66031;51.224;-0.164;2023-02-14T01:51:21;102408.99;;;17.39;28.46
57452;BME280;66031;51.224;-0.164;2023-02-14T01:53:47;102411.40;;;17.45;28.64
57452;BME280;66031;51.224;-0.164;2023-02-14T01:56:22;102415.45;;;17.35;28.70
57452;BME280;66031;51.224;-0.164;2023-02-14T01:58:40;102415.82;;;17.33;28.75
57452;BME280;66031;51.224;-0.164;2023-02-14T02:01:04;102415.16;;;17.42;28.75
57452;BME280;66031;51.224;-0.164;2023-02-14T02:03:32;102411.01;;;17.31;28.60
57452;BME280;66031;51.224;-0.164;2023-02-14T02:05:58;102410.13;;;17.57;28.62
57452;BME280;66031;51.224;-0.164;2023-02-14T02:08:20;102416.32;;;17.27;28.59
57452;BME280;66031;51.224;-0.164;2023-02-14T02:10:45;102410.31;;;17.55;28.41
57452;BME280;66031;51.224;-0.164;2023-02-14T02:13:15;102404.92;;;17.53;28.42
57452;BME280;66031;51.224;-0.164;2023-02-14T02:15:44;102405.77;;;17.59;28.45
57452;BME280;66031;51.224;-0.164;2023-02-14T02:18:07;102405.78;;;17.82;28.03
57452;BME280;66031;51.224;-0.164;2023-02-14T02:23:15;102403.29;;;17.67;27.92
57452;BME280;66031;51.224;-0.164;2023-02-14T02:25:32;102405.21;;;17.57;28.20
57452;BME280;66031;51.224;-0.164;2023-02-14T02:27:56;102402.62;;;17.65;27.96
57452;BME280;66031;51.224;-0.164;2023-02-14T02:35:09;102398.99;;;17.88;27.83
57452;BME280;66031;51.224;-0.164;2023-02-14T02:37:35;102401.53;;;17.86;27.72
57452;BME280;66031;51.224;-0.164;2023-02-14T02:40:04;102390.79;;;17.59;28.15
57452;BME280;66031;51.224;-0.164;2023-02-14T02:42:23;102390.29;;;17.68;28.02
57452;BME280;66031;51.224;-0.164;2023-02-14T02:44:50;102387.00;;;17.71;27.96
57452;BME280;66031;51.224;-0.164;2023-02-14T02:47:15;102387.88;;;17.95;27.61
57452;BME280;66031;51.224;-0.164;2023-02-14T02:49:41;102387.72;;;17.79;27.67
57452;BME280;66031;51.224;-0.164;2023-02-14T02:52:02;102386.45;;;17.43;27.92
57452;BME280;66031;51.224;-0.164;2023-02-14T02:54:30;102383.32;;;17.60;27.79
57452;BME280;66031;51.224;-0.164;2023-02-14T02:56:54;102382.18;;;17.60;28.03
57452;BME280;66031;51.224;-0.164;2023-02-14T02:59:19;102384.37;;;17.55;27.84
57452;BME280;66031;51.224;-0.164;2023-02-14T03:01:41;102384.47;;;17.52;27.92
57452;BME280;66031;51.224;-0.164;2023-02-14T03:04:10;102389.44;;;17.72;27.72
57452;BME280;66031;51.224;-0.164;2023-02-14T03:06:33;102380.63;;;17.33;28.05
57452;BME280;66031;51.224;-0.164;2023-02-14T03:09:09;102378.15;;;17.24;28.04
57452;BME280;66031;51.224;-0.164;2023-02-14T03:11:24;102376.73;;;17.62;27.59
57452;BME280;66031;51.224;-0.164;2023-02-14T03:14:00;102384.83;;;17.21;28.30
57452;BME280;66031;51.224;-0.164;2023-02-14T03:16:23;102380.84;;;17.44;27.87
57452;BME280;66031;51.224;-0.164;2023-02-14T03:18:48;102379.74;;;17.47;27.77
57452;BME280;66031;51.224;-0.164;2023-02-14T03:21:13;102382.43;;;17.56;27.67
57452;BME280;66031;51.224;-0.164;2023-02-14T03:23:36;102384.56;;;17.23;28.03
57452;BME280;66031;51.224;-0.164;2023-02-14T03:26:03;102383.51;;;17.41;27.83
57452;BME280;66031;51.224;-0.164;2023-02-14T03:28:29;102384.55;;;17.19;28.14
57452;BME280;66031;51.224;-0.164;2023-02-14T03:30:55;102386.31;;;17.33;27.89
57452;BME280;66031;51.224;-0.164;2023-02-14T03:33:18;102390.38;;;17.56;28.12
57452;BME280;66031;51.224;-0.164;2023-02-14T03:35:46;102388.75;;;17.52;27.61
57452;BME280;66031;51.224;-0.164;2023-02-14T03:38:08;102391.68;;;17.08;27.78
57452;BME280;66031;51.224;-0.164;2023-02-14T03:40:35;102385.65;;;17.23;27.63
57452;BME280;66031;51.224;-0.164;2023-02-14T03:43:00;102384.86;;;17.24;27.54
57452;BME280;66031;51.224;-0.164;2023-02-14T03:45:26;102377.45;;;17.31;27.57
57452;BME280;66031;51.224;-0.164;2023-02-14T03:47:49;102378.75;;;17.20;27.87
57452;BME280;66031;51.224;-0.164;2023-02-14T03:50:15;102377.91;;;17.16;27.80
57452;BME280;66031;51.224;-0.164;2023-02-14T03:52:39;102381.45;;;17.08;27.67
57452;BME280;66031;51.224;-0.164;2023-02-14T03:55:06;102381.17;;;16.97;27.93
57452;BME280;66031;51.224;-0.164;2023-02-14T03:57:33;102379.87;;;16.93;27.95
57452;BME280;66031;51.224;-0.164;2023-02-14T03:59:55;102377.56;;;16.95;27.95
57452;BME280;66031;51.224;-0.164;2023-02-14T04:02:24;102376.66;;;17.36;28.00
57452;BME280;66031;51.224;-0.164;2023-02-14T04:04:47;102374.87;;;16.62;28.43
57452;BME280;66031;51.224;-0.164;2023-02-14T04:07:11;102375.16;;;17.18;28.11
57452;BME280;66031;51.224;-0.164;2023-02-14T04:09:36;102376.69;;;17.27;27.93
57452;BME280;66031;51.224;-0.164;2023-02-14T04:12:01;102375.45;;;17.02;27.90
57452;BME280;66031;51.224;-0.164;2023-02-14T04:14:27;102374.90;;;17.20;28.07
57452;BME280;66031;51.224;-0.164;2023-02-14T04:16:53;102374.51;;;17.27;27.86
57452;BME280;66031;51.224;-0.164;2023-02-14T04:19:18;102371.39;;;16.93;27.93
57452;BME280;66031;51.224;-0.164;2023-02-14T04:21:44;102371.54;;;16.61;28.31
57452;BME280;66031;51.224;-0.164;2023-02-14T04:24:10;102373.89;;;17.28;28.06
57452;BME280;66031;51.224;-0.164;2023-02-14T04:26:35;102370.72;;;17.24;28.14
57452;BME280;66031;51.224;-0.164;2023-02-14T04:29:00;102370.12;;;16.85;28.05
57452;BME280;66031;51.224;-0.164;2023-02-14T04:31:26;102371.87;;;16.82;27.98
57452;BME280;66031;51.224;-0.164;2023-02-14T04:33:51;102380.98;;;16.99;27.94
57452;BME280;66031;51.224;-0.164;2023-02-14T04:36:17;102382.03;;;17.25;27.82
57452;BME280;66031;51.224;-0.164;2023-02-14T04:38:42;102384.31;;;16.84;27.96
57452;BME280;66031;51.224;-0.164;2023-02-14T04:41:08;102385.22;;;17.08;28.29
57452;BME280;66031;51.224;-0.164;2023-02-14T04:43:34;102381.90;;;17.09;27.83
57452;BME280;66031;51.224;-0.164;2023-02-14T04:45:59;102381.16;;;17.22;27.94
57452;BME280;66031;51.224;-0.164;2023-02-14T04:48:24;102381.35;;;16.56;28.19
57452;BME280;66031;51.224;-0.164;2023-02-14T04:50:51;102381.74;;;17.04;28.11
57452;BME280;66031;51.224;-0.164;2023-02-14T04:53:16;102383.45;;;16.81;28.10
57452;BME280;66031;51.224;-0.164;2023-02-14T04:55:41;102383.39;;;17.11;28.01
57452;BME280;66031;51.224;-0.164;2023-02-14T04:58:07;102387.86;;;16.96;28.07
57452;BME280;66031;51.224;-0.164;2023-02-14T05:00:33;102389.17;;;17.23;27.81
57452;BME280;66031;51.224;-0.164;2023-02-14T05:02:58;102388.00;;;16.71;28.03
57452;BME280;66031;51.224;-0.164;2023-02-14T05:05:24;102385.83;;;16.47;28.17
57452;BME280;66031;51.224;-0.164;2023-02-14T05:07:50;102383.64;;;16.81;27.98
57452;BME280;66031;51.224;-0.164;2023-02-14T05:10:15;102380.13;;;17.12;27.77
57452;BME280;66031;51.224;-0.164;2023-02-14T05:12:40;102382.24;;;16.92;27.89
57452;BME280;66031;51.224;-0.164;2023-02-14T05:15:07;102381.35;;;16.92;27.87
57452;BME280;66031;51.224;-0.164;2023-02-14T05:17:31;102384.04;;;16.85;27.80
57452;BME280;66031;51.224;-0.164;2023-02-14T05:19:57;102378.11;;;16.84;28.03
57452;BME280;66031;51.224;-0.164;2023-02-14T05:22:22;102368.77;;;16.84;27.71
57452;BME280;66031;51.224;-0.164;2023-02-14T05:24:48;102370.99;;;16.65;27.95
57452;BME280;66031;51.224;-0.164;2023-02-14T05:27:14;102375.60;;;16.88;27.90
57452;BME280;66031;51.224;-0.164;2023-02-14T05:29:39;102372.60;;;16.77;27.66
57452;BME280;66031;51.224;-0.164;2023-02-14T05:32:04;102366.80;;;16.64;27.70
57452;BME280;66031;51.224;-0.164;2023-02-14T05:34:30;102370.08;;;17.25;27.58
57452;BME280;66031;51.224;-0.164;2023-02-14T05:36:55;102377.87;;;17.07;27.40
57452;BME280;66031;51.224;-0.164;2023-02-14T05:39:21;102378.43;;;16.83;27.53
57452;BME280;66031;51.224;-0.164;2023-02-14T05:41:47;102380.88;;;16.66;27.61
57452;BME280;66031;51.224;-0.164;2023-02-14T05:44:12;102375.91;;;16.86;27.66
57452;BME280;66031;51.224;-0.164;2023-02-14T05:46:38;102376.30;;;16.62;27.67
57452;BME280;66031;51.224;-0.164;2023-02-14T05:49:04;102380.07;;;16.77;27.77
57452;BME280;66031;51.224;-0.164;2023-02-14T05:51:29;102377.59;;;16.66;27.74
57452;BME280;66031;51.224;-0.164;2023-02-14T05:53:55;102376.79;;;17.00;27.61
57452;BME280;66031;51.224;-0.164;2023-02-14T05:56:21;102376.78;;;16.80;27.66
57452;BME280;66031;51.224;-0.164;2023-02-14T05:58:46;102378.44;;;17.13;27.56
57452;BME280;66031;51.224;-0.164;2023-02-14T06:01:12;102382.45;;;17.38;27.48
57452;BME280;66031;51.224;-0.164;2023-02-14T06:03:38;102383.28;;;16.69;27.98
57452;BME280;66031;51.224;-0.164;2023-02-14T06:06:04;102381.04;;;16.83;27.64
57452;BME280;66031;51.224;-0.164;2023-02-14T06:08:29;102375.05;;;16.81;28.02
57452;BME280;66031;51.224;-0.164;2023-02-14T06:10:55;102376.48;;;16.89;28.01
57452;BME280;66031;51.224;-0.164;2023-02-14T06:13:21;102379.05;;;16.99;27.97
57452;BME280;66031;51.224;-0.164;2023-02-14T06:15:46;102379.56;;;17.43;28.15
57452;BME280;66031;51.224;-0.164;2023-02-14T06:18:11;102380.88;;;17.01;28.20
57452;BME280;66031;51.224;-0.164;2023-02-14T06:20:37;102377.60;;;17.39;27.65
57452;BME280;66031;51.224;-0.164;2023-02-14T06:23:02;102376.94;;;17.29;27.86
57452;BME280;66031;51.224;-0.164;2023-02-14T06:25:28;102382.75;;;17.23;27.99
57452;BME280;66031;51.224;-0.164;2023-02-14T06:27:56;102383.58;;;17.32;27.50
57452;BME280;66031;51.224;-0.164;2023-02-14T06:30:21;102388.56;;;17.53;27.55
57452;BME280;66031;51.224;-0.164;2023-02-14T06:32:46;102388.82;;;17.56;27.44
57452;BME280;66031;51.224;-0.164;2023-02-14T06:35:11;102388.92;;;17.37;27.87
57452;BME280;66031;51.224;-0.164;2023-02-14T06:37:37;102388.83;;;17.48;27.77
57452;BME280;66031;51.224;-0.164;2023-02-14T06:40:03;102385.32;;;17.40;27.61
57452;BME280;66031;51.224;-0.164;2023-02-14T06:42:28;102383.83;;;17.48;27.83
57452;BME280;66031;51.224;-0.164;2023-02-14T06:44:54;102385.86;;;17.27;27.99
57452;BME280;66031;51.224;-0.164;2023-02-14T06:47:19;102385.18;;;17.30;28.02
57452;BME280;66031;51.224;-0.164;2023-02-14T06:49:45;102383.18;;;17.15;27.86
57452;BME280;66031;51.224;-0.164;2023-02-14T06:52:11;102386.25;;;17.50;27.58
57452;BME280;66031;51.224;-0.164;2023-02-14T06:54:36;102389.19;;;17.42;27.74
57452;BME280;66031;51.224;-0.164;2023-02-14T06:57:02;102390.45;;;17.51;27.86
57452;BME280;66031;51.224;-0.164;2023-02-14T06:59:28;102395.19;;;17.56;27.54
57452;BME280;66031;51.224;-0.164;2023-02-14T07:01:53;102399.16;;;17.32;27.63
57452;BME280;66031;51.224;-0.164;2023-02-14T07:04:19;102400.17;;;17.40;27.64
57452;BME280;66031;51.224;-0.164;2023-02-14T07:06:45;102396.64;;;17.67;27.43
57452;BME280;66031;51.224;-0.164;2023-02-14T07:09:11;102398.36;;;17.65;27.58
57452;BME280;66031;51.224;-0.164;2023-02-14T07:11:36;102400.79;;;17.65;27.58
57452;BME280;66031;51.224;-0.164;2023-02-14T07:14:01;102398.53;;;17.69;27.50
57452;BME280;66031;51.224;-0.164;2023-02-14T07:16:27;102399.69;;;17.38;27.62
57452;BME280;66031;51.224;-0.164;2023-02-14T07:18:52;102401.54;;;17.72;27.37
57452;BME280;66031;51.224;-0.164;2023-02-14T07:21:18;102404.33;;;17.69;27.20
57452;BME280;66031;51.224;-0.164;2023-02-14T07:23:43;102409.54;;;17.90;27.26
57452;BME280;66031;51.224;-0.164;2023-02-14T07:26:08;102411.88;;;17.71;27.43
57452;BME280;66031;51.224;-0.164;2023-02-14T07:28:34;102413.12;;;17.59;27.53
57452;BME280;66031;51.224;-0.164;2023-02-14T07:31:00;102417.42;;;17.76;27.52
57452;BME280;66031;51.224;-0.164;2023-02-14T07:33:25;102421.08;;;17.75;27.58
57452;BME280;66031;51.224;-0.164;2023-02-14T07:35:51;102422.23;;;17.85;27.26
57452;BME280;66031;51.224;-0.164;2023-02-14T07:38:16;102425.01;;;17.89;27.32
57452;BME280;66031;51.224;-0.164;2023-02-14T07:40:42;102421.70;;;17.76;27.36
57452;BME280;66031;51.224;-0.164;2023-02-14T07:43:07;102422.05;;;17.84;27.53
57452;BME280;66031;51.224;-0.164;2023-02-14T07:45:33;102426.57;;;17.96;27.36
57452;BME280;66031;51.224;-0.164;2023-02-14T07:47:59;102430.10;;;17.92;27.52
57452;BME280;66031;51.224;-0.164;2023-02-14T07:50:24;102431.22;;;17.90;27.41
57452;BME280;66031;51.224;-0.164;2023-02-14T07:52:49;102431.20;;;17.69;27.59
57452;BME280;66031;51.224;-0.164;2023-02-14T07:55:15;102433.68;;;17.84;27.75
57452;BME280;66031;51.224;-0.164;2023-02-14T07:57:40;102435.46;;;17.95;27.71
57452;BME280;66031;51.224;-0.164;2023-02-14T08:00:07;102437.07;;;17.70;27.75
57452;BME280;66031;51.224;-0.164;2023-02-14T08:02:31;102436.75;;;18.06;27.63
57452;BME280;66031;51.224;-0.164;2023-02-14T08:04:57;102436.67;;;17.90;27.44
57452;BME280;66031;51.224;-0.164;2023-02-14T08:07:22;102432.95;;;18.13;27.51
57452;BME280;66031;51.224;-0.164;2023-02-14T08:09:48;102433.78;;;17.89;27.36
57452;BME280;66031;51.224;-0.164;2023-02-14T08:12:13;102435.41;;;18.04;27.41
57452;BME280;66031;51.224;-0.164;2023-02-14T08:14:39;102436.06;;;17.79;27.35
57452;BME280;66031;51.224;-0.164;2023-02-14T08:17:04;102442.82;;;18.07;27.21
57452;BME280;66031;51.224;-0.164;2023-02-14T08:19:30;102442.58;;;18.02;27.11
57452;BME280;66031;51.224;-0.164;2023-02-14T08:21:56;102445.87;;;17.90;27.24
57452;BME280;66031;51.224;-0.164;2023-02-14T08:24:21;102445.96;;;17.38;27.48
57452;BME280;66031;51.224;-0.164;2023-02-14T08:26:47;102442.54;;;17.57;27.30
57452;BME280;66031;51.224;-0.164;2023-02-14T08:29:12;102438.72;;;17.55;27.33
57452;BME280;66031;51.224;-0.164;2023-02-14T08:31:38;102440.53;;;17.63;27.38
57452;BME280;66031;51.224;-0.164;2023-02-14T08:34:04;102444.05;;;17.36;27.28
57452;BME280;66031;51.224;-0.164;2023-02-14T08:36:29;102442.66;;;17.43;27.28
57452;BME280;66031;51.224;-0.164;2023-02-14T08:38:54;102443.60;;;17.55;27.30
57452;BME280;66031;51.224;-0.164;2023-02-14T08:41:20;102442.00;;;17.49;27.25
57452;BME280;66031;51.224;-0.164;2023-02-14T08:43:46;102444.36;;;17.50;27.17
57452;BME280;66031;51.224;-0.164;2023-02-14T08:46:12;102441.20;;;17.00;27.33
57452;BME280;66031;51.224;-0.164;2023-02-14T08:48:37;102442.64;;;17.10;27.49
57452;BME280;66031;51.224;-0.164;2023-02-14T08:51:05;102440.82;;;17.17;27.49
57452;BME280;66031;51.224;-0.164;2023-02-14T08:53:28;102442.97;;;17.04;27.60
57452;BME280;66031;51.224;-0.164;2023-02-14T08:55:54;102443.21;;;16.96;27.62
57452;BME280;66031;51.224;-0.164;2023-02-14T08:58:19;102439.86;;;17.22;27.63
57452;BME280;66031;51.224;-0.164;2023-02-14T09:00:45;102444.01;;;17.03;27.61
57452;BME280;66031;51.224;-0.164;2023-02-14T09:03:11;102443.91;;;17.12;27.53
57452;BME280;66031;51.224;-0.164;2023-02-14T09:05:36;102441.83;;;16.96;27.65
57452;BME280;66031;51.224;-0.164;2023-02-14T09:08:02;102444.04;;;17.11;27.56
57452;BME280;66031;51.224;-0.164;2023-02-14T09:10:27;102443.60;;;16.87;27.63
57452;BME280;66031;51.224;-0.164;2023-02-14T09:12:53;102440.96;;;17.16;27.40
57452;BME280;66031;51.224;-0.164;2023-02-14T09:15:19;102442.95;;;17.11;27.45
57452;BME280;66031;51.224;-0.164;2023-02-14T09:17:44;102436.49;;;17.07;27.54
57452;BME280;66031;51.224;-0.164;2023-02-14T09:20:11;102436.99;;;17.69;26.99
57452;BME280;66031;51.224;-0.164;2023-02-14T09:22:35;102431.78;;;17.82;26.89
57452;BME280;66031;51.224;-0.164;2023-02-14T09:25:01;102428.90;;;17.87;26.92
57452;BME280;66031;51.224;-0.164;2023-02-14T09:27:26;102426.37;;;17.98;26.77
57452;BME280;66031;51.224;-0.164;2023-02-14T09:29:52;102422.78;;;17.85;26.85
57452;BME280;66031;51.224;-0.164;2023-02-14T09:32:17;102422.89;;;17.47;27.01
57452;BME280;66031;51.224;-0.164;2023-02-14T09:34:42;102419.00;;;17.80;26.95
57452;BME280;66031;51.224;-0.164;2023-02-14T09:37:09;102419.92;;;17.87;26.90
57452;BME280;66031;51.224;-0.164;2023-02-14T09:39:35;102419.34;;;17.66;27.08
57452;BME280;66031;51.224;-0.164;2023-02-14T09:42:14;102419.90;;;17.82;26.95
57452;BME280;66031;51.224;-0.164;2023-02-14T09:44:28;102420.39;;;17.90;26.87
57452;BME280;66031;51.224;-0.164;2023-02-14T09:46:52;102416.91;;;17.77;26.78
57452;BME280;66031;51.224;-0.164;2023-02-14T09:49:28;102417.19;;;17.97;26.92
57452;BME280;66031;51.224;-0.164;2023-02-14T09:51:45;102417.07;;;18.08;26.87
57452;BME280;66031;51.224;-0.164;2023-02-14T09:54:11;102415.65;;;17.73;27.02
57452;BME280;66031;51.224;-0.164;2023-02-14T09:56:39;102412.72;;;17.75;26.98
57452;BME280;66031;51.224;-0.164;2023-02-14T09:59:03;102412.17;;;17.90;26.97
57452;BME280;66031;51.224;-0.164;2023-02-14T10:01:26;102409.41;;;17.82;27.03
57452;BME280;66031;51.224;-0.164;2023-02-14T10:04:00;102405.91;;;17.75;27.16
57452;BME280;66031;51.224;-0.164;2023-02-14T10:06:32;102409.25;;;17.83;27.14
57452;BME280;66031;51.224;-0.164;2023-02-14T10:08:48;102410.55;;;17.60;27.12
57452;BME280;66031;51.224;-0.164;2023-02-14T10:11:06;102414.35;;;17.88;27.17
57452;BME280;66031;51.224;-0.164;2023-02-14T10:13:33;102415.25;;;17.91;27.29
57452;BME280;66031;51.224;-0.164;2023-02-14T10:15:58;102418.61;;;17.95;27.43
57452;BME280;66031;51.224;-0.164;2023-02-14T10:18:23;102414.02;;;17.79;27.57
57452;BME280;66031;51.224;-0.164;2023-02-14T10:20:49;102413.10;;;18.01;27.70
57452;BME280;66031;51.224;-0.164;2023-02-14T10:23:25;102411.86;;;17.90;27.93
57452;BME280;66031;51.224;-0.164;2023-02-14T10:25:41;102412.51;;;18.15;27.98
57452;BME280;66031;51.224;-0.164;2023-02-14T10:28:02;102410.97;;;17.83;28.14
57452;BME280;66031;51.224;-0.164;2023-02-14T10:30:36;102407.56;;;17.88;28.14
57452;BME280;66031;51.224;-0.164;2023-02-14T10:32:59;102407.04;;;17.91;28.12
57452;BME280;66031;51.224;-0.164;2023-02-14T10:35:28;102404.28;;;17.79;28.31
57452;BME280;66031;51.224;-0.164;2023-02-14T10:37:53;102401.01;;;17.75;28.40
57452;BME280;66031;51.224;-0.164;2023-02-14T10:40:30;102401.34;;;17.77;28.58
57452;BME280;66031;51.224;-0.164;2023-02-14T10:42:40;102401.45;;;17.90;28.47
57452;BME280;66031;51.224;-0.164;2023-02-14T10:45:09;102397.74;;;17.81;28.50
57452;BME280;66031;51.224;-0.164;2023-02-14T10:47:35;102398.38;;;17.85;28.51
57452;BME280;66031;51.224;-0.164;2023-02-14T10:49:55;102395.40;;;18.07;28.35
57452;BME280;66031;51.224;-0.164;2023-02-14T10:52:21;102392.00;;;18.17;28.38
57452;BME280;66031;51.224;-0.164;2023-02-14T10:54:44;102394.50;;;18.12;28.69
57452;BME280;66031;51.224;-0.164;2023-02-14T10:57:13;102393.64;;;18.09;28.94
57452;BME280;66031;51.224;-0.164;2023-02-14T10:59:37;102395.42;;;18.09;29.00
57452;BME280;66031;51.224;-0.164;2023-02-14T11:01:58;102398.54;;;18.16;28.80
57452;BME280;66031;51.224;-0.164;2023-02-14T11:04:24;102397.64;;;17.99;28.85
57452;BME280;66031;51.224;-0.164;2023-02-14T11:06:49;102391.17;;;17.90;29.04
57452;BME280;66031;51.224;-0.164;2023-02-14T11:09:14;102388.79;;;18.10;29.10
57452;BME280;66031;51.224;-0.164;2023-02-14T11:11:43;102387.99;;;18.18;29.19
57452;BME280;66031;51.224;-0.164;2023-02-14T11:16:33;102385.15;;;18.33;29.32
57452;BME280;66031;51.224;-0.164;2023-02-14T11:19:06;102389.48;;;18.15;29.17
57452;BME280;66031;51.224;-0.164;2023-02-14T11:21:21;102387.87;;;18.14;29.19
57452;BME280;66031;51.224;-0.164;2023-02-14T11:23:48;102382.75;;;18.04;29.53
57452;BME280;66031;51.224;-0.164;2023-02-14T11:26:20;102381.31;;;17.89;29.76
57452;BME280;66031;51.224;-0.164;2023-02-14T11:28:44;102378.01;;;18.04;29.91
57452;BME280;66031;51.224;-0.164;2023-02-14T11:31:03;102376.17;;;18.10;29.84
57452;BME280;66031;51.224;-0.164;2023-02-14T11:33:37;102371.97;;;18.05;29.94
57452;BME280;66031;51.224;-0.164;2023-02-14T11:35:54;102371.01;;;17.78;29.93
57452;BME280;66031;51.224;-0.164;2023-02-14T11:38:26;102368.94;;;17.83;30.18
57452;BME280;66031;51.224;-0.164;2023-02-14T11:40:44;102363.39;;;18.12;29.98
57452;BME280;66031;51.224;-0.164;2023-02-14T11:43:25;102357.48;;;18.10;30.04
57452;BME280;66031;51.224;-0.164;2023-02-14T11:45:36;102356.61;;;18.12;30.15
57452;BME280;66031;51.224;-0.164;2023-02-14T11:48:08;102354.50;;;17.86;30.25
57452;BME280;66031;51.224;-0.164;2023-02-14T11:50:26;102350.97;;;18.15;30.26
57452;BME280;66031;51.224;-0.164;2023-02-14T11:52:54;102348.96;;;17.98;30.37
57452;BME280;66031;51.224;-0.164;2023-02-14T11:55:24;102347.63;;;18.15;30.37
57452;BME280;66031;51.224;-0.164;2023-02-14T11:57:42;102346.92;;;18.05;30.43
57452;BME280;66031;51.224;-0.164;2023-02-14T12:00:14;102344.39;;;17.95;30.59
57452;BME280;66031;51.224;-0.164;2023-02-14T12:02:37;102339.98;;;18.18;30.62
57452;BME280;66031;51.224;-0.164;2023-02-14T12:05:00;102336.60;;;18.11;30.66
57452;BME280;66031;51.224;-0.164;2023-02-14T12:07:27;102331.13;;;18.16;30.93
57452;BME280;66031;51.224;-0.164;2023-02-14T12:10:06;102324.56;;;17.85;30.98
57452;BME280;66031;51.224;-0.164;2023-02-14T12:12:17;102322.74;;;18.10;31.03
57452;BME280;66031;51.224;-0.164;2023-02-14T12:14:40;102321.25;;;18.12;31.09
57452;BME280;66031;51.224;-0.164;2023-02-14T12:17:12;102317.05;;;18.03;31.08
57452;BME280;66031;51.224;-0.164;2023-02-14T12:19:37;102316.43;;;18.34;30.81
57452;BME280;66031;51.224;-0.164;2023-02-14T12:21:59;102313.86;;;18.33;30.88
57452;BME280;66031;51.224;-0.164;2023-02-14T12:24:26;102310.64;;;17.85;31.15
57452;BME280;66031;51.224;-0.164;2023-02-14T12:26:51;102309.91;;;18.12;31.15
57452;BME280;66031;51.224;-0.164;2023-02-14T12:29:18;102304.35;;;17.72;31.01
57452;BME280;66031;51.224;-0.164;2023-02-14T12:31:37;102300.61;;;18.63;29.69
57452;BME280;66031;51.224;-0.164;2023-02-14T12:34:04;102295.89;;;18.85;29.89
57452;BME280;66031;51.224;-0.164;2023-02-14T12:36:41;102295.67;;;18.37;30.32
57452;BME280;66031;51.224;-0.164;2023-02-14T12:39:00;102294.60;;;18.20;30.55
57452;BME280;66031;51.224;-0.164;2023-02-14T12:41:31;102290.69;;;18.44;30.42